createdAt,value
2022-10-19T00:01:23.048Z,99.9
2022-10-19T00:03:23.188Z,99.9
2022-10-19T00:05:18.336Z,99.9
2022-10-19T00:07:23.896Z,99.9
2022-10-19T00:09:21.532Z,99.9
2022-10-19T00:11:19.156Z,99.9
2022-10-19T00:13:16.812Z,99.9
2022-10-19T00:15:14.455Z,99.9
2022-10-19T00:19:09.699Z,99.9
2022-10-19T00:21:15.267Z,99.9
2022-10-19T00:23:12.930Z,99.9
2022-10-19T00:25:10.539Z,99.9
2022-10-19T00:27:08.191Z,99.9
2022-10-19T00:31:03.456Z,99.9
2022-10-19T00:33:01.101Z,99.9
2022-10-19T00:35:06.655Z,99.9
2022-10-19T00:37:04.264Z,99.9
2022-10-19T00:39:01.891Z,99.9
2022-10-19T00:42:57.181Z,99.9
2022-10-19T00:44:54.804Z,99.9
2022-10-19T00:46:52.578Z,99.9
2022-10-19T00:48:59.404Z,99.9
2022-10-19T00:50:55.709Z,99.9
2022-10-19T00:52:53.336Z,99.9
2022-10-19T00:53:56.122Z,99.9
2022-10-19T00:59:49.043Z,99.9
2022-10-19T01:01:54.591Z,99.9
2022-10-19T01:05:49.837Z,99.9
2022-10-19T01:07:47.468Z,99.9
2022-10-19T01:09:45.063Z,99.9
2022-10-19T01:11:42.696Z,99.9
2022-10-19T01:13:40.344Z,99.9
2022-10-19T01:15:45.970Z,99.9
2022-10-19T01:17:43.549Z,99.9
2022-10-19T01:19:41.148Z,99.9
2022-10-19T01:21:38.801Z,99.9
2022-10-19T01:23:36.427Z,99.9
2022-10-19T01:25:34.078Z,99.9
2022-10-19T01:27:31.961Z,99.9
2022-10-19T01:29:37.250Z,99.9
2022-10-19T01:31:34.918Z,99.9
2022-10-19T01:33:32.525Z,99.9
2022-10-19T01:35:30.148Z,99.9
2022-10-19T01:37:27.794Z,99.9
2022-10-19T01:39:25.432Z,99.9
2022-10-19T01:41:23.066Z,99.9
2022-10-19T01:43:28.621Z,99.9
2022-10-19T01:45:26.225Z,99.9
2022-10-19T01:47:23.875Z,99.9
2022-10-19T01:48:26.640Z,99.9
2022-10-19T01:50:24.267Z,99.9
2022-10-19T01:52:21.888Z,99.9
2022-10-19T01:54:19.512Z,99.9
2022-10-19T01:56:25.089Z,99.9
2022-10-19T01:58:22.728Z,99.9
2022-10-19T02:00:20.360Z,99.9
2022-10-19T02:02:17.998Z,99.9
2022-10-19T02:04:15.612Z,99.9
2022-10-19T02:08:10.881Z,99.9
2022-10-19T02:10:16.439Z,99.9
2022-10-19T02:12:14.074Z,99.9
2022-10-19T02:16:09.314Z,99.9
2022-10-19T02:18:07.009Z,99.9
2022-10-19T02:20:04.741Z,99.9
2022-10-19T02:22:02.267Z,99.9
2022-10-19T02:24:07.795Z,99.9
2022-10-19T02:26:05.417Z,99.9
2022-10-19T02:28:03.046Z,99.9
2022-10-19T02:30:00.685Z,99.9
2022-10-19T02:31:58.316Z,99.9
2022-10-19T02:33:55.945Z,99.9
2022-10-19T02:35:53.549Z,99.9
2022-10-19T02:37:59.072Z,99.9
2022-10-19T02:39:56.702Z,99.9
2022-10-19T02:41:54.347Z,99.9
2022-10-19T02:44:54.773Z,99.9
2022-10-19T02:48:49.996Z,99.9
2022-10-19T02:50:55.571Z,99.9
2022-10-19T02:56:48.412Z,99.9
2022-10-19T02:58:46.034Z,99.9
2022-10-19T03:00:43.710Z,99.9
2022-10-19T03:02:41.290Z,99.9
2022-10-19T03:06:44.464Z,99.9
2022-10-19T03:08:42.085Z,99.9
2022-10-19T03:10:39.708Z,99.9
2022-10-19T03:12:37.312Z,99.9
2022-10-19T03:14:34.962Z,99.9
2022-10-19T03:16:32.597Z,99.9
2022-10-19T03:18:38.121Z,99.9
2022-10-19T03:20:35.785Z,99.9
2022-10-19T03:22:33.383Z,99.9
2022-10-19T03:24:31.015Z,99.9
2022-10-19T03:26:28.664Z,99.9
2022-10-19T03:28:26.297Z,99.9
2022-10-19T03:30:23.909Z,99.9
2022-10-19T03:32:29.451Z,99.9
2022-10-19T03:34:27.091Z,99.9
2022-10-19T03:36:24.699Z,99.9
2022-10-19T03:50:45.280Z,99.9
2022-10-19T03:52:42.878Z,99.9
2022-10-19T03:54:40.487Z,99.9
2022-10-19T03:56:38.114Z,99.9
2022-10-19T03:58:43.633Z,99.9
2022-10-19T04:00:41.327Z,99.9
2022-10-19T04:02:38.900Z,99.9
2022-10-19T04:04:36.512Z,99.9
2022-10-19T04:06:34.136Z,99.9
2022-10-19T04:08:31.771Z,99.9
2022-10-19T04:10:29.402Z,99.9
2022-10-19T04:12:34.916Z,99.9
2022-10-19T04:14:39.224Z,99.9
2022-10-19T04:16:30.166Z,99.9
2022-10-19T04:20:25.403Z,99.9
2022-10-19T04:22:23.024Z,99.9
2022-10-19T04:24:20.653Z,99.9
2022-10-19T04:28:23.825Z,99.9
2022-10-19T04:30:21.438Z,99.9
2022-10-19T04:31:24.196Z,99.9
2022-10-19T04:33:21.838Z,99.9
2022-10-19T04:35:19.448Z,99.9
2022-10-19T04:37:17.073Z,99.9
2022-10-19T04:41:20.210Z,99.9
2022-10-19T04:43:17.856Z,99.9
2022-10-19T04:45:15.467Z,99.9
2022-10-19T04:47:13.081Z,99.9
2022-10-19T04:49:10.689Z,99.9
2022-10-19T04:51:08.321Z,99.9
2022-10-19T04:53:13.864Z,99.9
2022-10-19T04:55:11.463Z,99.9
2022-10-19T04:59:06.679Z,99.9
2022-10-19T05:01:04.374Z,99.9
2022-10-19T05:03:01.938Z,99.9
2022-10-19T05:04:59.562Z,99.9
2022-10-19T05:07:05.107Z,99.9
2022-10-19T05:09:02.735Z,99.9
2022-10-19T05:11:00.348Z,99.9
2022-10-19T05:12:58.097Z,99.9
2022-10-19T05:14:55.591Z,99.9
2022-10-19T05:16:53.220Z,99.9
2022-10-19T05:18:50.886Z,99.9
2022-10-19T05:20:56.361Z,99.9
2022-10-19T05:22:53.973Z,99.9
2022-10-19T05:24:55.902Z,99.9
2022-10-19T05:25:55.878Z,99.9
2022-10-19T05:31:48.739Z,99.9
2022-10-19T05:35:51.877Z,99.9
2022-10-19T05:37:49.492Z,99.9
2022-10-19T05:39:47.137Z,99.9
2022-10-19T05:41:44.741Z,99.9
2022-10-19T05:43:42.341Z,99.9
2022-10-19T05:45:39.951Z,99.9
2022-10-19T05:47:45.493Z,99.9
2022-10-19T05:49:43.097Z,99.9
2022-10-19T05:51:40.737Z,99.9
2022-10-19T05:55:35.963Z,99.9
2022-10-19T05:57:33.838Z,99.9
2022-10-19T06:01:36.820Z,99.9
2022-10-19T06:05:31.985Z,99.9
2022-10-19T06:07:29.621Z,99.9
2022-10-19T06:09:27.216Z,99.9
2022-10-19T06:11:24.854Z,99.9
2022-10-19T06:13:22.474Z,99.9
2022-10-19T06:15:28.015Z,99.9
2022-10-19T06:17:25.601Z,99.9
2022-10-19T06:19:23.265Z,99.9
2022-10-19T06:22:23.626Z,99.9
2022-10-19T06:24:21.243Z,99.9
2022-10-19T06:26:18.838Z,99.9
2022-10-19T06:28:24.361Z,99.9
2022-10-19T06:30:22.039Z,99.9
2022-10-19T06:32:19.597Z,99.9
2022-10-19T06:34:17.269Z,99.9
2022-10-19T06:36:14.986Z,99.9
2022-10-19T06:38:12.468Z,99.9
2022-10-19T06:40:10.162Z,99.9
2022-10-19T06:42:15.606Z,99.9
2022-10-19T06:44:13.238Z,99.9
2022-10-19T06:46:10.837Z,99.9
2022-10-19T06:48:08.447Z,99.9
2022-10-19T06:50:06.090Z,99.9
2022-10-19T06:52:03.718Z,99.9
2022-10-19T06:54:01.310Z,99.9
2022-10-19T06:56:06.852Z,99.9
2022-10-19T06:58:04.469Z,99.9
2022-10-19T07:00:02.109Z,99.9
2022-10-19T07:01:59.707Z,99.9
2022-10-19T07:03:57.302Z,99.9
2022-10-19T07:05:54.939Z,99.9
2022-10-19T07:07:52.607Z,99.9
2022-10-19T07:09:58.069Z,99.9
2022-10-19T07:11:55.674Z,99.9
2022-10-19T07:13:53.267Z,99.9
2022-10-19T07:16:19.692Z,99.9
2022-10-19T07:18:13.713Z,99.9
2022-10-19T07:20:11.341Z,99.9
2022-10-19T07:22:21.180Z,99.9
2022-10-19T07:24:14.477Z,99.9
2022-10-19T07:26:12.074Z,99.9
2022-10-19T07:28:09.701Z,99.9
2022-10-19T07:30:07.315Z,99.9
2022-10-19T07:32:04.941Z,99.9
2022-10-19T07:34:02.560Z,99.9
2022-10-19T07:36:08.099Z,99.9
2022-10-19T07:38:05.711Z,99.9
2022-10-19T07:40:03.322Z,99.9
2022-10-19T07:42:00.951Z,99.9
2022-10-19T07:43:58.609Z,99.9
2022-10-19T07:47:53.967Z,99.9
2022-10-19T07:49:59.373Z,99.9
2022-10-19T07:51:56.988Z,99.9
2022-10-19T07:53:54.610Z,99.9
2022-10-19T07:55:52.248Z,99.9
2022-10-19T07:57:49.852Z,99.9
2022-10-19T07:59:47.468Z,99.9
2022-10-19T08:01:45.212Z,99.9
2022-10-19T08:04:43.165Z,99.9
2022-10-19T08:05:48.217Z,99.9
2022-10-19T08:07:45.832Z,99.9
2022-10-19T08:08:48.690Z,99.9
2022-10-19T08:10:46.275Z,99.9
2022-10-19T08:12:43.881Z,99.9
2022-10-19T08:14:41.552Z,99.9
2022-10-19T08:16:47.045Z,99.9
2022-10-19T08:18:44.682Z,99.9
2022-10-19T08:22:39.944Z,99.9
2022-10-19T08:24:37.568Z,99.9
2022-10-19T08:26:35.203Z,99.9
2022-10-19T08:28:32.817Z,99.9
2022-10-19T08:30:38.356Z,99.9
2022-10-19T08:32:36.215Z,99.9
2022-10-19T08:34:33.643Z,99.9
2022-10-19T08:36:31.379Z,99.9
2022-10-19T08:38:28.886Z,99.9
2022-10-19T08:40:26.513Z,99.9
2022-10-19T08:42:24.172Z,99.9
2022-10-19T08:44:29.720Z,99.9
2022-10-19T08:46:27.382Z,99.9
2022-10-19T08:48:24.998Z,99.9
2022-10-19T08:52:20.280Z,99.9
2022-10-19T08:54:17.904Z,99.9
2022-10-19T08:56:26.882Z,99.9
2022-10-19T09:00:18.742Z,99.9
2022-10-19T09:02:16.356Z,99.9
2022-10-19T09:03:27.158Z,99.9
2022-10-19T09:05:16.795Z,99.9
2022-10-19T09:07:14.423Z,99.9
2022-10-19T09:09:12.074Z,99.9
2022-10-19T09:11:17.611Z,99.9
2022-10-19T09:13:15.243Z,99.9
2022-10-19T09:15:12.891Z,99.9
2022-10-19T09:17:10.541Z,99.9
2022-10-19T09:19:08.184Z,99.9
2022-10-19T09:21:05.791Z,99.9
2022-10-19T09:23:03.429Z,99.9
2022-10-19T09:25:08.994Z,99.9
2022-10-19T09:27:06.681Z,99.9
2022-10-19T09:32:59.576Z,99.9
2022-10-19T09:34:57.212Z,99.9
2022-10-19T09:36:54.895Z,99.9
2022-10-19T09:39:00.392Z,99.9
2022-10-19T09:40:58.015Z,99.9
2022-10-19T09:42:55.652Z,99.9
2022-10-19T09:44:53.302Z,99.9
2022-10-19T09:46:50.959Z,99.9
2022-10-19T09:48:48.589Z,99.9
2022-10-19T09:50:46.242Z,99.9
2022-10-19T09:52:51.783Z,99.9
2022-10-19T09:54:49.433Z,99.9
2022-10-19T09:56:47.082Z,99.9
2022-10-19T09:57:49.846Z,99.9
2022-10-19T09:59:47.505Z,99.9
2022-10-19T10:01:45.238Z,99.9
2022-10-19T10:03:42.772Z,99.7
2022-10-19T10:05:48.315Z,99.5
2022-10-19T10:07:45.945Z,99.3
2022-10-19T10:09:43.551Z,98.9
2022-10-19T10:11:41.272Z,98.5
2022-10-19T10:13:38.826Z,98.2
2022-10-19T10:15:36.430Z,98
2022-10-19T10:17:34.106Z,97.6
2022-10-19T10:19:39.658Z,97.3
2022-10-19T10:21:37.314Z,97.3
2022-10-19T10:23:34.926Z,97.1
2022-10-19T10:25:32.566Z,96.9
2022-10-19T10:27:30.236Z,96.3
2022-10-19T10:29:27.824Z,95.5
2022-10-19T10:31:25.486Z,95
2022-10-19T10:33:44.169Z,93.5
2022-10-19T10:35:28.705Z,93
2022-10-19T10:37:26.356Z,92.8
2022-10-19T10:41:21.633Z,92.3
2022-10-19T10:45:16.905Z,91.9
2022-10-19T10:47:22.460Z,91.3
2022-10-19T10:49:20.127Z,89.5
2022-10-19T10:51:17.756Z,88.2
2022-10-19T10:57:39.963Z,85.3
2022-10-19T10:59:45.820Z,84.3
2022-10-19T11:01:43.327Z,84
2022-10-19T11:03:40.795Z,83.6
2022-10-19T11:07:37.848Z,81.6
2022-10-19T11:09:35.212Z,81.6
2022-10-19T11:11:32.843Z,81.4
2022-10-19T11:13:38.402Z,80.9
2022-10-19T11:15:36.021Z,80.5
2022-10-19T11:17:33.897Z,80.8
2022-10-19T11:19:31.291Z,80.8
2022-10-19T11:21:28.913Z,80.5
2022-10-19T11:23:26.573Z,79.8
2022-10-19T11:25:24.129Z,78.4
2022-10-19T11:27:29.737Z,77.4
2022-10-19T11:29:27.361Z,77.1
2022-10-19T11:33:22.586Z,75.6
2022-10-19T11:35:20.199Z,75.4
2022-10-19T11:37:17.808Z,74.1
2022-10-19T11:39:15.420Z,73.6
2022-10-19T11:41:20.935Z,71.7
2022-10-19T11:43:19.640Z,70.6
2022-10-19T11:45:16.124Z,69.8
2022-10-19T11:46:18.875Z,66.2
2022-10-19T11:48:16.485Z,65.9
2022-10-19T11:50:14.054Z,65
2022-10-19T11:52:11.623Z,64
2022-10-19T11:54:17.152Z,62.8
2022-10-19T11:56:14.724Z,62.9
2022-10-19T11:58:12.298Z,63
2022-10-19T12:00:14.999Z,63.1
2022-10-19T12:02:07.477Z,62.9
2022-10-19T12:04:05.033Z,62.9
2022-10-19T12:06:02.597Z,62.7
2022-10-19T12:08:08.198Z,60.7
2022-10-19T12:10:05.642Z,60.4
2022-10-19T12:12:03.248Z,59.9
2022-10-19T12:14:00.759Z,59.4
2022-10-19T12:15:58.297Z,59
2022-10-19T12:17:55.950Z,58.8
2022-10-19T12:19:53.376Z,58.4
2022-10-19T12:21:58.860Z,57.8
2022-10-19T12:23:56.407Z,57.8
2022-10-19T12:25:53.942Z,57.3
2022-10-19T12:27:51.487Z,57
2022-10-19T12:29:49.036Z,56
2022-10-19T12:31:46.579Z,55.1
2022-10-19T12:33:44.092Z,54.3
2022-10-19T12:35:49.605Z,53.6
2022-10-19T12:37:47.123Z,53
2022-10-19T12:39:44.661Z,52.2
2022-10-19T12:40:47.384Z,51.4
2022-10-19T12:44:42.431Z,48.9
2022-10-19T12:46:39.941Z,46.8
2022-10-19T12:48:45.392Z,45.5
2022-10-19T12:50:42.925Z,45.1
2022-10-19T12:52:40.413Z,44.7
2022-10-19T12:54:37.905Z,43.8
2022-10-19T12:56:35.398Z,42.5
2022-10-19T12:58:32.869Z,41.8
2022-10-19T13:00:30.399Z,41.1
2022-10-19T13:02:35.772Z,40.1
2022-10-19T13:06:30.708Z,39.4
2022-10-19T13:10:25.585Z,39.2
2022-10-19T13:12:25.678Z,39.2
2022-10-19T13:14:20.464Z,39.4
2022-10-19T13:16:25.892Z,39.5
2022-10-19T13:18:23.316Z,39.4
2022-10-19T13:20:20.747Z,39.5
2022-10-19T13:22:18.166Z,39.3
2022-10-19T13:24:15.637Z,38.5
2022-10-19T13:26:13.021Z,38.3
2022-10-19T13:28:10.414Z,38
2022-10-19T13:30:15.822Z,37.6
2022-10-19T13:32:13.243Z,39.8
2022-10-19T13:34:10.651Z,44.6
2022-10-19T13:35:13.381Z,48.3
2022-10-19T13:37:10.817Z,48.9
2022-10-19T13:39:08.248Z,50.5
2022-10-19T13:41:05.698Z,52
2022-10-19T13:43:11.140Z,53.4
2022-10-19T13:45:08.636Z,54.3
2022-10-19T13:47:06.096Z,54.9
2022-10-19T13:49:03.627Z,55.5
2022-10-19T13:51:01.108Z,55.8
2022-10-19T13:52:58.634Z,56.2
2022-10-19T13:54:56.171Z,56.4
2022-10-19T13:57:01.698Z,57.3
2022-10-19T13:58:59.226Z,57.6
2022-10-19T14:00:56.788Z,57.8
2022-10-19T14:02:54.359Z,58.1
2022-10-19T14:04:51.936Z,58.2
2022-10-19T14:06:49.507Z,58.3
2022-10-19T14:08:47.195Z,58.2
2022-10-19T14:11:01.346Z,58.4
2022-10-19T14:16:45.473Z,59.1
2022-10-19T14:18:43.066Z,59.2
2022-10-19T14:20:40.698Z,59.3
2022-10-19T14:22:38.308Z,59.4
2022-10-19T14:24:43.835Z,59.7
2022-10-19T14:26:41.491Z,59.8
2022-10-19T14:28:39.083Z,60.1
2022-10-19T14:31:06.031Z,60.3
2022-10-19T14:33:03.628Z,60.3
2022-10-19T14:35:01.341Z,60.2
2022-10-19T14:37:06.839Z,60.5
2022-10-19T14:39:04.446Z,60.6
2022-10-19T14:41:02.074Z,61
2022-10-19T14:42:59.735Z,61.4
2022-10-19T14:44:57.368Z,61.8
2022-10-19T14:46:55.047Z,62
2022-10-19T14:50:58.187Z,62.5
2022-10-19T14:52:55.777Z,62.4
2022-10-19T14:54:53.416Z,62.5
2022-10-19T14:56:51.021Z,62.7
2022-10-19T14:58:48.682Z,63
2022-10-19T15:00:46.332Z,62.8
2022-10-19T15:02:43.932Z,63
2022-10-19T15:06:47.100Z,63.3
2022-10-19T15:08:44.861Z,63.2
2022-10-19T15:10:42.391Z,63.3
2022-10-19T15:12:40.198Z,63.5
2022-10-19T15:14:37.707Z,63.7
2022-10-19T15:16:35.319Z,63.9
2022-10-19T15:18:49.355Z,64.6
2022-10-19T15:20:49.018Z,64.8
2022-10-19T15:23:38.902Z,65.2
2022-10-19T15:25:36.558Z,65.3
2022-10-19T15:27:34.200Z,65.3
2022-10-19T15:29:31.843Z,65.4
2022-10-19T15:31:37.391Z,65.7
2022-10-19T15:33:35.021Z,65.7
2022-10-19T15:35:32.635Z,65.7
2022-10-19T15:37:30.280Z,66
2022-10-19T15:39:37.712Z,66
2022-10-19T15:41:25.528Z,65.9
2022-10-19T15:43:23.166Z,65.9
2022-10-19T15:45:28.801Z,66.3
2022-10-19T15:47:26.416Z,66.5
2022-10-19T15:49:24.067Z,66.9
2022-10-19T15:51:21.863Z,67.3
2022-10-19T15:53:19.328Z,67.9
2022-10-19T15:55:16.979Z,68.2
2022-10-19T15:57:14.605Z,68.6
2022-10-19T16:03:15.486Z,70.2
2022-10-19T16:05:13.133Z,70.6
2022-10-19T16:07:10.770Z,70.9
2022-10-19T16:09:08.549Z,71.2
2022-10-19T16:11:06.069Z,71.6
2022-10-19T16:13:11.614Z,72.1
2022-10-19T16:15:09.269Z,72.5
2022-10-19T16:17:06.903Z,72.9
2022-10-19T16:20:07.313Z,73.5
2022-10-19T16:22:04.953Z,73.7
2022-10-19T16:26:08.201Z,74.8
2022-10-19T16:28:05.820Z,75.4
2022-10-19T16:30:03.494Z,75.8
2022-10-19T16:32:01.148Z,76.5
2022-10-19T16:33:58.800Z,77.6
2022-10-19T16:35:56.465Z,79
2022-10-19T16:37:54.098Z,79.2
2022-10-19T16:39:59.651Z,80.1
2022-10-19T16:41:57.308Z,80.4
2022-10-19T16:43:54.954Z,80.9
2022-10-19T16:45:52.609Z,81.9
2022-10-19T16:47:51.805Z,83.2
2022-10-19T16:49:49.391Z,83.2
2022-10-19T16:53:52.616Z,86.3
2022-10-19T16:55:50.268Z,86.8
2022-10-19T16:57:47.903Z,87.1
2022-10-19T16:59:45.622Z,87.5
2022-10-19T17:01:43.258Z,87.5
2022-10-19T17:03:40.889Z,87.8
2022-10-19T17:05:38.557Z,87.9
2022-10-19T17:07:44.115Z,88.1
2022-10-19T17:09:42.932Z,88.2
2022-10-19T17:11:39.403Z,88.3
2022-10-19T17:16:37.462Z,88.8
2022-10-19T17:18:35.127Z,89
2022-10-19T17:20:40.742Z,89.4
2022-10-19T17:22:38.330Z,89.4
2022-10-19T17:24:35.984Z,89.6
2022-10-19T17:26:33.655Z,89.5
2022-10-19T17:28:31.293Z,89.3
2022-10-19T17:30:28.968Z,89.3
2022-10-19T17:34:32.178Z,89.3
2022-10-19T17:36:29.819Z,89.3
2022-10-19T17:38:27.446Z,89.4
2022-10-19T17:40:25.101Z,89.2
2022-10-19T17:44:20.412Z,89.5
2022-10-19T17:46:18.074Z,89.6
2022-10-19T17:52:18.949Z,89.9
2022-10-19T17:54:16.606Z,89.9
2022-10-19T17:56:14.270Z,89.8
2022-10-19T17:58:11.922Z,89.9
2022-10-19T18:00:09.568Z,89.9
2022-10-19T18:02:15.161Z,90.2
2022-10-19T18:04:12.804Z,90.2
2022-10-19T18:06:10.898Z,90.3
2022-10-19T18:08:37.532Z,90.2
2022-10-19T18:10:35.130Z,90.2
2022-10-19T18:12:32.789Z,90.2
2022-10-19T18:14:38.334Z,90.4
2022-10-19T18:16:35.991Z,90.5
2022-10-19T18:18:33.653Z,90.7
2022-10-19T18:20:31.332Z,90.8
2022-10-19T18:22:28.980Z,90.9
2022-10-19T18:26:24.295Z,91.2
2022-10-19T18:28:29.842Z,91.5
2022-10-19T18:30:27.488Z,91.8
2022-10-19T18:32:25.173Z,92
2022-10-19T18:34:22.835Z,92.1
2022-10-19T18:36:20.481Z,92.3
2022-10-19T18:38:18.157Z,92.6
2022-10-19T18:40:15.778Z,92.8
2022-10-19T18:42:21.335Z,93.2
2022-10-19T18:44:23.649Z,93.3
2022-10-19T18:46:16.653Z,93.4
2022-10-19T18:48:14.301Z,93.4
2022-10-19T18:50:12.023Z,93.6
2022-10-19T18:52:09.634Z,93.7
2022-10-19T18:54:07.276Z,93.9
2022-10-19T18:56:12.820Z,94.4
2022-10-19T18:58:10.483Z,94.7
2022-10-19T19:00:08.144Z,94.7
2022-10-19T19:01:11.162Z,94.9
2022-10-19T19:03:08.618Z,94.9
2022-10-19T19:13:04.763Z,95.9
2022-10-19T19:15:02.442Z,95.9
2022-10-19T19:17:00.098Z,95.8
2022-10-19T19:18:57.701Z,96
2022-10-19T19:20:55.404Z,96
2022-10-19T19:23:00.963Z,96
2022-10-19T19:24:58.626Z,96.2
2022-10-19T19:26:56.245Z,96.3
2022-10-19T19:28:53.895Z,96.4
2022-10-19T19:30:51.533Z,96.5
2022-10-19T19:32:49.180Z,96.6
2022-10-19T19:34:49.268Z,96.8
2022-10-19T19:36:52.387Z,97
2022-10-19T19:38:50.053Z,97.1
2022-10-19T19:46:40.667Z,97.6
2022-10-19T19:48:38.339Z,97.7
2022-10-19T19:52:41.541Z,98.1
2022-10-19T19:54:39.190Z,98.2
2022-10-19T19:55:41.962Z,98.2
2022-10-19T19:57:39.616Z,98.3
2022-10-19T19:59:37.276Z,98.3
2022-10-19T20:01:34.990Z,98.5
2022-10-19T20:03:40.497Z,98.8
2022-10-19T20:09:33.481Z,99.2
2022-10-19T20:13:28.788Z,99.1
2022-10-19T20:19:29.586Z,99.3
2022-10-19T20:21:27.233Z,99.4
2022-10-19T20:25:22.556Z,99.6
2022-10-19T20:27:20.223Z,99.7
2022-10-19T20:29:18.004Z,99.7
2022-10-19T20:31:23.520Z,99.9
2022-10-19T20:33:21.054Z,99.9
2022-10-19T20:35:18.727Z,99.9
2022-10-19T20:37:16.386Z,99.9
2022-10-19T20:39:14.034Z,99.9
2022-10-19T20:41:11.677Z,99.9
2022-10-19T20:43:09.341Z,99.9
2022-10-19T20:45:14.931Z,99.9
2022-10-19T20:47:12.531Z,99.9
2022-10-19T20:49:10.201Z,99.9
2022-10-19T20:52:10.640Z,99.9
2022-10-19T20:54:08.288Z,99.9
2022-10-19T20:56:05.944Z,99.9
2022-10-19T20:58:11.502Z,99.9
2022-10-19T21:04:04.421Z,99.9
2022-10-19T21:06:02.062Z,99.9
2022-10-19T21:07:59.751Z,99.9
2022-10-19T21:09:57.355Z,99.9
2022-10-19T21:12:02.930Z,99.9
2022-10-19T21:15:58.147Z,99.9
2022-10-19T21:17:55.773Z,99.9
2022-10-19T21:19:57.187Z,99.9
2022-10-19T21:21:51.322Z,99.9
2022-10-19T21:29:49.563Z,99.9
2022-10-19T21:31:48.885Z,99.9
2022-10-19T21:35:42.527Z,99.9
2022-10-19T21:37:40.111Z,99.9
2022-10-19T21:39:45.669Z,99.9
2022-10-19T21:41:43.305Z,99.9
2022-10-19T21:43:40.949Z,99.9
2022-10-19T21:46:07.906Z,99.9
2022-10-19T21:48:05.550Z,99.9
2022-10-19T21:52:11.453Z,99.9
2022-10-19T21:54:06.411Z,99.9
2022-10-19T21:56:03.989Z,99.9
2022-10-19T21:58:01.635Z,99.9
2022-10-19T21:59:59.277Z,99.9
2022-10-19T22:01:56.982Z,99.9
2022-10-19T22:03:54.600Z,99.9
2022-10-19T22:09:55.423Z,99.9
2022-10-19T22:13:50.678Z,99.9
2022-10-19T22:15:48.317Z,99.9
2022-10-19T22:17:45.969Z,99.9
2022-10-19T22:19:51.506Z,99.9
2022-10-19T22:21:49.151Z,99.9
2022-10-19T22:23:46.788Z,99.9
2022-10-19T22:25:44.435Z,99.9
2022-10-19T22:27:42.100Z,99.9
2022-10-19T22:29:41.299Z,99.9
2022-10-19T22:31:38.899Z,99.9
2022-10-19T22:33:44.451Z,99.9
2022-10-19T22:35:42.048Z,99.9
2022-10-19T22:37:39.708Z,99.9
2022-10-19T22:38:42.496Z,99.9
2022-10-19T22:40:40.135Z,99.9
2022-10-19T22:42:38.352Z,99.9
2022-10-19T22:44:35.464Z,99.9
2022-10-19T22:46:40.967Z,99.9
2022-10-19T22:48:38.612Z,99.9
2022-10-19T22:50:36.251Z,99.9
2022-10-19T22:52:34.255Z,99.9
2022-10-19T22:54:31.571Z,99.9
2022-10-19T22:56:29.196Z,99.9
2022-10-19T22:58:26.832Z,99.9
2022-10-19T23:00:32.393Z,99.9
2022-10-19T23:02:30.023Z,99.9
2022-10-19T23:06:25.335Z,99.9
2022-10-19T23:08:22.945Z,99.9
2022-10-19T23:10:20.461Z,99.9
2022-10-19T23:12:18.101Z,99.9
2022-10-19T23:14:23.629Z,99.9
2022-10-19T23:16:21.346Z,99.9
2022-10-19T23:18:18.936Z,99.9
2022-10-19T23:20:16.585Z,99.9
2022-10-19T23:22:14.197Z,99.9
2022-10-19T23:24:11.893Z,99.9
2022-10-19T23:26:09.533Z,99.9
2022-10-19T23:28:15.072Z,99.9
2022-10-19T23:30:12.713Z,99.9
2022-10-19T23:32:10.337Z,99.9
2022-10-19T23:33:13.133Z,99.9
2022-10-19T23:37:08.395Z,99.9
2022-10-19T23:39:06.065Z,99.9
2022-10-19T23:41:11.605Z,99.9
2022-10-19T23:43:09.242Z,99.9
2022-10-19T23:45:06.857Z,99.9
2022-10-19T23:47:04.516Z,99.9
2022-10-19T23:49:02.159Z,99.9
2022-10-19T23:50:59.799Z,99.9
2022-10-19T23:52:57.428Z,99.9
2022-10-19T23:55:02.981Z,99.9
2022-10-19T23:58:58.256Z,99.9
